METAR AND TAF INFORMATION
METAR FOR LGIO
ADDS - METARS form results

(1325 UTC 13 November 2019)
Data provider http://aviationweather.gov/metar/data/
 
METAR text: LGIO 131320Z AUTO VRB02KT //// -RA ////// 14/13 Q1010 RE//
Conditions at: LGIO (IOANNINA , GR) observed 1320 UTC 13 November 2019
Temperature: 14.0°C (57°F)
Dewpoint: 13.0°C (55°F) [RH = 94%]
Pressure (altimeter): 29.82 inches Hg (1010.0 mb)
Winds: variable direction winds at 2 MPH (2 knots; 1.0 m/s)
Visibility: missing
Ceiling: unknown
Clouds: missing
Weather: -RA  (light rain)

METAR text: LGIO 131250Z AUTO VRB02KT //// -RA ////// 14/12 Q1010 RE//
Conditions at: LGIO (IOANNINA , GR) observed 1250 UTC 13 November 2019
Temperature: 14.0°C (57°F)
Dewpoint: 12.0°C (54°F) [RH = 88%]
Pressure (altimeter): 29.82 inches Hg (1010.0 mb)
Winds: variable direction winds at 2 MPH (2 knots; 1.0 m/s)
Visibility: missing
Ceiling: unknown
Clouds: missing
Weather: -RA  (light rain)

Forecast for: LGIO (IOANNINA , GR)
Text: TAF LGIO 131100Z 1312/1321 VRB03KT 9999 FEW020 BKN030 BKN080
Forecast period: 1200 to 2100 UTC 13 November 2019
Forecast type: FROM: standard forecast or significant change
Winds: variable direction winds at 3 MPH (3 knots; 1.5 m/s)
Visibility: 6 or more miles 10+ km)
Ceiling: 3000 feet AGL
Clouds: few clouds at 2000 feet AGL
broken clouds at 3000 feet AGL
broken clouds at 8000 feet AGL
Weather: no significant weather forecast for this period
Text: PROB40
Forecast period: 1200 to 2000 UTC 13 November 2019
Forecast type: TEMPORARY: The following changes expected for less than half the time period
Visibility: 4 miles (6 km)
Ceiling: unknown
Clouds: missing
Weather: RA  (moderate rain)
Text: TEMPO 1312/1320 6000 RA
Forecast period: 1300 to 1700 UTC 13 November 2019
Forecast type: TEMPORARY: The following changes expected for less than half the time period
Visibility: 1.86 miles (2.99 km)
Ceiling: 2000 feet AGL
Clouds: scattered clouds at 800 feet AGL
few clouds at 1500 feet AGL
broken clouds at 2000 feet AGL
Weather: TSRA  (rain associated with thunderstorm(s))

 ΧΑΡΤΗΣ ΑΕΡΟΔΡΟΜΙΟΥ

 RUNWAY INFORMATION
Διάδρομος 14 Runway length 7874 ft Runway width 148 ft
Runway elevation 1550 ft Runway displaced threshold 0 ft Runway heading 142
Διάδρομος 32 Runway length 7874 ft Runway width 148 ft
Runway elevation 1558 ft Runway displaced threshold 394 ft Runway heading 322

 ΣΥΧΝΟΤΗΤΕΣ ΑΕΡΟΔΡΟΜΙΟΥ
Τύπος A/D Όνομα APP Συχνότητα 118.6 MHZ
Τύπος A/G Όνομα RDO Συχνότητα 563.7 MHZ
Τύπος AFIS Όνομα AFIS Συχνότητα 132.2 MHZ
Τύπος TWR Όνομα TWR Συχνότητα 132.2 MHZ

 AIRPORT NEAR NAVIGATION AIDS
Τύπος NDB Όνομα Ioannina Συχνότητα 340 KHZ
Τύπος VOR-DME Όνομα Ioannina Συχνότητα 108600 KHZ



Hellenic Air Force Virtual - All rights reserved 2019 - Powered by VAM